Time;durP1;ratioP1;P1;durP2;ratioP2;P2;SDS_P1;SDS_P2;PMS_P1;PMS_P2;Temp;Humidity;BMP_temperature;BMP_pressure;BME280_temperature;BME280_humidity;BME280_pressure;Samples;Min_cycle;Max_cycle;Signal;HPM_P1;HPM_P2
2022/12/23 00:01:23;;;;;;;228.47;61.17;;;8.70;99.90;;;;;;5050862;28;20267;-52
2022/12/23 00:03:51;;;;;;;37.67;29.23;;;8.80;99.90;;;;;;5050808;28;20256;-52
2022/12/23 00:06:20;;;;;;;111.60;32.80;;;8.80;99.90;;;;;;5049477;28;20256;-52
2022/12/23 00:08:56;;;;;;;75.17;31.13;;;8.80;99.90;;;;;;5050135;28;20816;-53
2022/12/23 00:11:27;;;;;;;302.00;79.07;;;8.80;99.90;;;;;;5050440;28;20245;-53
2022/12/23 00:16:48;;;;;;;167.33;54.30;;;8.80;99.90;;;;;;5050663;28;20217;-52
2022/12/23 00:19:17;;;;;;;101.70;34.20;;;8.80;99.90;;;;;;5050258;28;20232;-52
2022/12/23 00:21:45;;;;;;;85.10;35.63;;;8.90;99.90;;;;;;5050226;28;20230;-52
2022/12/23 00:24:16;;;;;;;84.13;42.00;;;8.90;99.90;;;;;;5050513;28;20803;-52
2022/12/23 00:26:45;;;;;;;100.13;43.57;;;8.90;99.90;;;;;;5049535;28;20244;-53
2022/12/23 00:29:13;;;;;;;765.73;216.60;;;8.90;99.90;;;;;;5050506;28;20202;-53
2022/12/23 00:31:41;;;;;;;588.07;168.07;;;8.90;99.90;;;;;;5049424;28;20259;-53
2022/12/23 00:34:10;;;;;;;249.83;73.63;;;8.90;99.90;;;;;;5043602;28;20250;-52
2022/12/23 00:36:39;;;;;;;108.97;37.47;;;8.90;99.90;;;;;;5047573;28;20210;-53
2022/12/23 00:44:43;;;;;;;321.20;80.03;;;8.80;99.90;;;;;;5049639;28;20211;-51
2022/12/23 00:49:40;;;;;;;241.83;62.10;;;8.80;99.90;;;;;;5046696;28;20201;-52
2022/12/23 00:49:58;;;;;;;44.00;25.23;;;8.80;99.90;;;;;;5050017;28;20209;-52
2022/12/23 00:52:27;;;;;;;189.37;56.50;;;8.80;99.90;;;;;;5049058;28;20253;-53
2022/12/23 00:54:55;;;;;;;250.57;64.27;;;8.80;99.90;;;;;;5046041;28;20272;-52
2022/12/23 00:57:24;;;;;;;147.67;46.17;;;8.70;99.90;;;;;;5046613;28;20213;-53
2022/12/23 00:59:52;;;;;;;860.80;186.47;;;8.80;99.90;;;;;;5048675;28;20209;-53
2022/12/23 01:07:57;;;;;;;99.30;40.60;;;8.70;99.90;;;;;;5033573;28;20301;-53
2022/12/23 01:10:25;;;;;;;187.20;66.63;;;8.70;99.90;;;;;;5049320;28;20236;-53
2022/12/23 01:12:54;;;;;;;294.13;83.67;;;8.80;99.90;;;;;;5049128;28;20707;-54
2022/12/23 01:15:23;;;;;;;404.40;81.97;;;8.80;99.90;;;;;;5049677;28;20336;-53
2022/12/23 01:17:51;;;;;;;208.77;50.07;;;8.80;99.90;;;;;;5049171;28;20213;-51
2022/12/23 01:20:20;;;;;;;106.87;37.27;;;8.80;99.90;;;;;;5048852;28;20261;-52
2022/12/23 01:22:48;;;;;;;390.77;100.63;;;8.80;99.90;;;;;;5048473;28;20726;-52
2022/12/23 01:25:16;;;;;;;310.00;71.93;;;8.80;99.90;;;;;;5049096;28;20213;-52
2022/12/23 01:27:44;;;;;;;386.40;133.00;;;8.90;99.90;;;;;;5049412;28;20244;-53
2022/12/23 01:30:14;;;;;;;622.33;197.40;;;8.80;99.90;;;;;;5047757;28;20620;-52
2022/12/23 01:32:42;;;;;;;152.67;53.73;;;8.80;99.90;;;;;;5048843;28;20649;-51
2022/12/23 01:35:10;;;;;;;51.67;29.17;;;8.80;99.90;;;;;;5048893;28;20248;-52
2022/12/23 01:37:38;;;;;;;48.00;29.63;;;8.80;99.90;;;;;;5048671;28;20202;-52
2022/12/23 01:40:08;;;;;;;136.77;35.30;;;8.80;99.90;;;;;;5048420;28;20670;-52
2022/12/23 01:42:45;;;;;;;183.17;51.10;;;8.80;99.90;;;;;;5047380;28;20234;-52
2022/12/23 01:45:17;;;;;;;181.73;68.93;;;8.80;99.90;;;;;;5045604;28;20306;-52
2022/12/23 01:47:50;;;;;;;137.57;45.10;;;8.90;99.90;;;;;;5042065;28;20646;-53
2022/12/23 01:50:23;;;;;;;260.77;86.80;;;8.90;99.90;;;;;;5048348;28;20304;-52
2022/12/23 01:52:59;;;;;;;173.40;53.70;;;8.90;99.90;;;;;;5048894;28;20865;-53
2022/12/23 01:55:38;;;;;;;658.27;187.87;;;8.90;99.90;;;;;;5040244;28;20678;-53
2022/12/23 01:58:11;;;;;;;34.63;21.00;;;8.90;99.90;;;;;;5052715;28;20208;-52
2022/12/23 02:03:43;;;;;;;29.57;20.27;;;8.90;99.90;;;;;;5052058;28;20229;-52
2022/12/23 02:09:17;;;;;;;70.30;35.13;;;8.90;99.90;;;;;;5052397;28;20306;-52
2022/12/23 02:12:24;;;;;;;61.67;27.10;;;8.90;99.90;;;;;;5048728;28;20227;-52
2022/12/23 02:18:00;;;;;;;78.47;30.43;;;8.90;99.90;;;;;;5052407;28;20675;-52
2022/12/23 02:20:50;;;;;;;363.13;59.63;;;8.90;99.90;;;;;;5052225;28;20272;-52
2022/12/23 02:23:51;;;;;;;476.17;107.77;;;8.90;99.90;;;;;;5052133;28;20260;-52
2022/12/23 02:26:46;;;;;;;74.57;29.53;;;8.90;99.90;;;;;;5052265;28;20213;-52
2022/12/23 02:30:04;;;;;;;97.10;26.87;;;8.80;99.90;;;;;;5052490;28;20293;-53
2022/12/23 02:32:46;;;;;;;93.87;35.90;;;8.90;99.90;;;;;;5016857;28;21084;-51
2022/12/23 02:35:24;;;;;;;76.30;31.33;;;8.90;99.90;;;;;;5050208;28;20202;-52
2022/12/23 02:37:57;;;;;;;144.73;60.93;;;8.90;99.90;;;;;;5052163;28;20288;-53
2022/12/23 02:40:33;;;;;;;120.53;37.30;;;9.00;99.90;;;;;;5052218;28;20276;-52
2022/12/23 02:43:06;;;;;;;287.43;68.17;;;9.00;99.90;;;;;;5052536;28;20253;-52
2022/12/23 02:45:40;;;;;;;279.27;81.90;;;8.90;99.90;;;;;;5051928;28;20205;-52
2022/12/23 02:48:14;;;;;;;58.67;25.57;;;8.90;99.90;;;;;;5046252;28;20202;-52
2022/12/23 02:50:44;;;;;;;232.93;67.93;;;8.80;99.90;;;;;;5050956;28;20657;-52
2022/12/23 02:53:20;;;;;;;237.67;64.83;;;8.90;99.90;;;;;;5052035;28;20229;-51
2022/12/23 02:55:50;;;;;;;46.27;23.93;;;8.90;99.90;;;;;;5051901;28;20237;-53
2022/12/23 02:58:22;;;;;;;356.47;95.73;;;8.90;99.90;;;;;;5052149;28;20201;-51
2022/12/23 03:00:50;;;;;;;412.57;105.50;;;8.90;99.90;;;;;;5050707;28;20698;-51
2022/12/23 03:03:21;;;;;;;140.97;47.53;;;8.90;99.90;;;;;;5051633;28;20218;-53
2022/12/23 03:05:51;;;;;;;230.77;47.57;;;8.80;99.90;;;;;;5051195;28;20210;-53
2022/12/23 03:08:23;;;;;;;286.77;82.23;;;8.80;99.90;;;;;;5051762;28;20241;-52
2022/12/23 03:11:03;;;;;;;362.63;101.97;;;8.80;99.90;;;;;;5051483;28;20210;-52
2022/12/23 03:14:03;;;;;;;215.23;49.50;;;8.80;99.90;;;;;;5051568;28;20225;-52
2022/12/23 03:16:42;;;;;;;64.63;31.57;;;8.80;99.90;;;;;;5035575;28;20209;-52
2022/12/23 03:19:19;;;;;;;104.53;34.07;;;8.80;99.90;;;;;;5050838;28;20627;-52
2022/12/23 03:21:53;;;;;;;625.33;164.07;;;8.80;99.90;;;;;;5051128;28;20262;-53
2022/12/23 03:24:32;;;;;;;190.10;42.43;;;8.90;99.90;;;;;;5051156;28;20554;-52
2022/12/23 03:27:06;;;;;;;167.97;44.27;;;8.80;99.90;;;;;;5043952;28;20213;-51
2022/12/23 03:29:41;;;;;;;183.73;46.30;;;8.90;99.90;;;;;;5049873;28;20246;-51
2022/12/23 03:32:13;;;;;;;81.33;33.67;;;8.90;99.90;;;;;;5050566;28;20286;-52
2022/12/23 03:34:45;;;;;;;232.70;55.63;;;8.90;99.90;;;;;;5050958;28;20291;-51
2022/12/23 03:37:15;;;;;;;167.63;46.57;;;8.90;99.90;;;;;;5050950;28;20297;-52
2022/12/23 03:39:49;;;;;;;42.47;25.43;;;8.90;99.90;;;;;;5050291;28;20300;-51
2022/12/23 03:42:22;;;;;;;31.77;21.47;;;8.90;99.90;;;;;;5050827;28;20316;-52
2022/12/23 03:44:52;;;;;;;129.60;41.77;;;8.90;99.90;;;;;;5051179;28;20201;-52
2022/12/23 03:47:45;;;;;;;80.97;26.80;;;8.90;99.90;;;;;;5050845;28;20218;-51
2022/12/23 03:50:16;;;;;;;324.37;52.33;;;8.90;99.90;;;;;;5050641;28;20306;-52
2022/12/23 03:52:50;;;;;;;56.17;24.23;;;8.90;99.90;;;;;;5050676;28;20698;-52
2022/12/23 03:55:24;;;;;;;335.33;99.07;;;8.90;99.90;;;;;;5050889;28;20270;-53
2022/12/23 03:58:01;;;;;;;185.70;27.40;;;8.90;99.90;;;;;;5051131;28;20233;-52
2022/12/23 04:00:34;;;;;;;105.47;30.37;;;9.00;99.90;;;;;;5048382;28;20245;-52
2022/12/23 04:03:14;;;;;;;213.40;31.20;;;8.90;99.90;;;;;;5050683;28;20237;-52
2022/12/23 04:05:50;;;;;;;67.80;32.70;;;9.00;99.90;;;;;;5050740;28;20209;-53
2022/12/23 04:08:26;;;;;;;159.90;33.70;;;9.00;99.90;;;;;;5050264;28;20309;-52
2022/12/23 04:10:54;;;;;;;90.70;25.10;;;9.00;99.90;;;;;;5050358;28;20271;-52
2022/12/23 04:13:22;;;;;;;66.17;28.00;;;9.00;99.90;;;;;;5050387;28;20257;-52
2022/12/23 04:15:50;;;;;;;290.13;68.67;;;9.00;99.90;;;;;;5049919;28;20206;-52
2022/12/23 04:18:18;;;;;;;600.87;178.27;;;9.00;99.90;;;;;;5049979;28;20206;-52
2022/12/23 04:20:48;;;;;;;95.60;27.90;;;9.00;99.90;;;;;;5050859;28;20211;-53
2022/12/23 04:23:16;;;;;;;394.13;87.27;;;9.00;99.90;;;;;;5036584;28;20334;-52
2022/12/23 04:25:44;;;;;;;109.63;38.57;;;9.00;99.90;;;;;;5050887;28;20240;-52
2022/12/23 04:28:12;;;;;;;230.20;56.73;;;9.00;99.90;;;;;;5049807;28;20241;-52
2022/12/23 04:30:40;;;;;;;17.83;15.83;;;9.00;99.90;;;;;;5050587;28;20208;-52
2022/12/23 04:33:11;;;;;;;198.67;87.13;;;9.00;99.90;;;;;;5050058;28;20219;-52
2022/12/23 04:35:39;;;;;;;22.87;20.63;;;9.00;99.90;;;;;;5050502;28;20233;-51
2022/12/23 04:38:09;;;;;;;130.73;32.30;;;9.00;99.90;;;;;;5049564;28;20241;-53
2022/12/23 04:40:37;;;;;;;201.67;50.30;;;8.90;99.90;;;;;;5050189;28;20245;-51
2022/12/23 04:43:05;;;;;;;54.77;28.20;;;8.90;99.90;;;;;;5049787;28;20258;-51
2022/12/23 04:45:33;;;;;;;286.43;81.17;;;8.90;99.90;;;;;;5050306;28;20240;-52
2022/12/23 04:48:01;;;;;;;425.80;85.83;;;8.90;99.90;;;;;;5050018;28;20212;-52
2022/12/23 04:50:29;;;;;;;206.90;68.47;;;8.80;99.90;;;;;;5048453;28;20236;-52
2022/12/23 04:52:57;;;;;;;330.20;85.93;;;8.80;99.90;;;;;;5038177;28;20225;-53
2022/12/23 04:55:27;;;;;;;478.07;99.77;;;8.80;99.90;;;;;;5049848;28;20292;-52
2022/12/23 04:57:55;;;;;;;312.87;85.10;;;8.70;99.90;;;;;;5049705;28;20245;-52
2022/12/23 05:00:23;;;;;;;24.53;21.87;;;8.70;99.90;;;;;;5049814;28;20213;-52
2022/12/23 05:02:51;;;;;;;580.63;105.60;;;8.70;99.90;;;;;;5049095;28;20679;-52
2022/12/23 05:05:19;;;;;;;340.20;81.53;;;8.70;99.90;;;;;;5048560;28;20198;-52
2022/12/23 05:07:49;;;;;;;510.57;122.87;;;8.70;99.90;;;;;;5048820;28;20239;-52
2022/12/23 05:10:18;;;;;;;96.57;34.00;;;8.70;99.90;;;;;;5029728;28;20723;-52
2022/12/23 05:12:47;;;;;;;180.77;46.80;;;8.70;99.90;;;;;;5034195;28;20301;-52
2022/12/23 05:15:15;;;;;;;275.83;51.80;;;8.70;99.90;;;;;;5032614;28;20250;-51
2022/12/23 05:17:43;;;;;;;273.57;67.87;;;8.70;99.90;;;;;;5044758;28;20672;-52
2022/12/23 05:20:11;;;;;;;261.80;78.07;;;8.70;99.90;;;;;;5049596;28;20678;-52
2022/12/23 05:22:40;;;;;;;189.80;40.83;;;8.70;99.90;;;;;;5048158;28;20222;-52
2022/12/23 05:25:09;;;;;;;97.80;36.67;;;8.70;99.90;;;;;;5049014;28;20244;-51
2022/12/23 05:27:37;;;;;;;318.23;77.10;;;8.70;99.90;;;;;;5037770;28;20233;-51
2022/12/23 05:30:08;;;;;;;250.67;65.87;;;8.70;99.90;;;;;;5031343;28;20305;-52
2022/12/23 05:32:38;;;;;;;55.80;25.30;;;8.60;99.90;;;;;;5028788;28;20301;-52
2022/12/23 05:35:06;;;;;;;685.03;148.90;;;8.70;99.90;;;;;;5029528;28;20202;-52
2022/12/23 05:37:34;;;;;;;124.20;56.97;;;8.70;99.90;;;;;;5027594;28;20252;-52
2022/12/23 05:40:03;;;;;;;65.90;25.57;;;8.70;99.90;;;;;;5027613;28;21019;-52
2022/12/23 05:42:31;;;;;;;227.13;71.83;;;8.70;99.90;;;;;;5036848;28;20307;-52
2022/12/23 05:44:59;;;;;;;116.20;51.73;;;8.70;99.90;;;;;;5048299;28;20259;-52
2022/12/23 05:47:29;;;;;;;45.50;21.20;;;8.70;99.90;;;;;;5047719;28;20213;-52
2022/12/23 05:49:57;;;;;;;122.80;45.13;;;8.70;99.90;;;;;;5047820;28;20284;-52
2022/12/23 05:52:25;;;;;;;32.00;22.03;;;8.70;99.90;;;;;;5031173;28;20313;-52
2022/12/23 05:54:53;;;;;;;345.87;83.77;;;8.70;99.90;;;;;;5037190;28;20372;-51
2022/12/23 05:57:21;;;;;;;153.33;49.30;;;8.70;99.90;;;;;;5040966;28;20260;-53
2022/12/23 05:59:49;;;;;;;98.90;28.47;;;8.80;99.90;;;;;;5046853;28;20198;-53
2022/12/23 06:02:19;;;;;;;301.97;67.73;;;8.70;99.90;;;;;;5045516;28;20225;-53
2022/12/23 06:04:48;;;;;;;91.53;42.23;;;8.70;99.90;;;;;;5042976;28;20217;-53
2022/12/23 06:07:17;;;;;;;274.10;71.53;;;8.80;99.90;;;;;;5042638;28;20206;-52
2022/12/23 06:09:45;;;;;;;255.13;46.97;;;8.70;99.90;;;;;;5049055;28;20201;-52
2022/12/23 06:12:13;;;;;;;835.97;238.93;;;8.80;99.90;;;;;;5046246;28;20218;-52
2022/12/23 06:14:41;;;;;;;227.20;79.40;;;8.80;99.90;;;;;;5048258;28;20202;-52
2022/12/23 06:17:09;;;;;;;197.37;41.43;;;8.80;99.90;;;;;;5047803;28;20210;-53
2022/12/23 06:19:37;;;;;;;505.40;95.87;;;8.80;99.90;;;;;;5048830;28;20198;-53
2022/12/23 06:22:06;;;;;;;177.67;50.67;;;8.80;99.90;;;;;;5043890;28;20248;-53
2022/12/23 06:24:34;;;;;;;230.00;58.13;;;8.80;99.90;;;;;;5048834;28;20221;-51
2022/12/23 06:27:03;;;;;;;122.43;39.77;;;8.80;99.90;;;;;;5047623;28;20271;-52
2022/12/23 06:29:31;;;;;;;137.97;48.87;;;8.80;99.90;;;;;;5048718;28;20296;-51
2022/12/23 06:31:59;;;;;;;411.30;142.63;;;8.80;99.90;;;;;;5046384;28;20259;-52
2022/12/23 06:34:27;;;;;;;34.03;27.90;;;8.80;99.90;;;;;;5047718;28;20578;-53
2022/12/23 06:36:55;;;;;;;401.93;84.53;;;8.80;99.90;;;;;;5042143;28;20261;-54
2022/12/23 06:39:25;;;;;;;28.87;22.80;;;8.90;99.90;;;;;;5046719;28;20568;-53
2022/12/23 06:41:53;;;;;;;25.47;22.87;;;8.90;99.90;;;;;;5043547;28;20212;-52
2022/12/23 06:44:21;;;;;;;24.20;19.10;;;8.90;99.90;;;;;;5045916;28;20313;-52
2022/12/23 06:46:49;;;;;;;172.70;68.90;;;8.90;99.90;;;;;;5043381;28;20654;-52
2022/12/23 06:49:17;;;;;;;249.83;101.10;;;8.90;99.90;;;;;;5044404;28;20270;-53
2022/12/23 06:51:45;;;;;;;1999.90;456.50;;;8.90;99.90;;;;;;5043737;28;20302;-53
2022/12/23 06:54:14;;;;;;;522.40;152.40;;;9.00;99.90;;;;;;5039200;28;20267;-53
2022/12/23 06:56:43;;;;;;;786.40;135.10;;;8.90;99.90;;;;;;5049391;28;20205;-53
2022/12/23 06:59:11;;;;;;;535.07;167.03;;;8.90;99.90;;;;;;5049843;28;20209;-52
2022/12/23 07:01:40;;;;;;;38.20;22.50;;;8.90;99.90;;;;;;5043362;28;20288;-52
2022/12/23 07:04:09;;;;;;;279.57;68.90;;;8.90;99.90;;;;;;5044294;28;20230;-53
2022/12/23 07:06:38;;;;;;;607.10;114.47;;;8.90;99.90;;;;;;5042250;28;20211;-53
2022/12/23 07:09:06;;;;;;;400.97;99.07;;;8.80;99.90;;;;;;5049076;28;20287;-53
2022/12/23 07:11:34;;;;;;;67.73;30.13;;;8.90;99.90;;;;;;5049866;28;20205;-53
2022/12/23 07:14:04;;;;;;;600.63;184.30;;;8.90;99.90;;;;;;5049767;28;20335;-53
2022/12/23 07:16:32;;;;;;;224.70;62.53;;;8.80;99.90;;;;;;5049915;28;20658;-53
2022/12/23 07:19:01;;;;;;;140.37;52.63;;;8.80;99.90;;;;;;5050338;28;20205;-53
2022/12/23 07:21:29;;;;;;;295.70;77.97;;;8.90;99.90;;;;;;5050774;28;20722;-52
2022/12/23 07:23:57;;;;;;;703.63;206.30;;;8.90;99.90;;;;;;5042920;28;20769;-53
2022/12/23 07:26:25;;;;;;;281.30;83.47;;;8.80;99.90;;;;;;5047781;28;20292;-52
2022/12/23 07:28:53;;;;;;;456.50;88.93;;;8.80;99.90;;;;;;5043780;28;20279;-52
2022/12/23 07:31:23;;;;;;;632.90;168.10;;;8.80;99.90;;;;;;5039174;28;20256;-53
2022/12/23 07:33:51;;;;;;;347.43;118.23;;;8.80;99.90;;;;;;5048484;28;20223;-52
2022/12/23 07:36:19;;;;;;;339.27;64.07;;;8.80;99.90;;;;;;5047469;28;20200;-53
2022/12/23 07:38:50;;;;;;;623.67;172.10;;;8.80;99.90;;;;;;5045750;28;20283;-53
2022/12/23 07:41:18;;;;;;;290.20;71.33;;;8.80;99.90;;;;;;5047535;28;20560;-53
2022/12/23 07:43:46;;;;;;;678.03;106.77;;;8.80;99.90;;;;;;5047795;28;20234;-52
2022/12/23 07:46:15;;;;;;;217.97;51.97;;;8.90;99.90;;;;;;5042139;28;20251;-53
2022/12/23 07:48:44;;;;;;;746.47;182.70;;;8.90;99.90;;;;;;5048742;28;20776;-52
2022/12/23 07:51:13;;;;;;;316.77;93.53;;;8.90;99.90;;;;;;5044493;28;20206;-52
2022/12/23 07:53:41;;;;;;;880.67;205.07;;;8.90;99.90;;;;;;5048100;28;20260;-52
2022/12/23 07:56:09;;;;;;;659.33;138.37;;;8.90;99.90;;;;;;5048429;28;20205;-52
2022/12/23 07:58:37;;;;;;;165.47;56.50;;;8.90;99.90;;;;;;5050018;28;20263;-52
2022/12/23 08:01:07;;;;;;;751.60;165.83;;;8.90;99.90;;;;;;5044972;28;20206;-53
2022/12/23 08:03:36;;;;;;;578.27;126.20;;;8.90;99.90;;;;;;5042592;28;20229;-52
2022/12/23 08:06:07;;;;;;;78.10;39.67;;;9.00;99.90;;;;;;5039278;28;20205;-53
2022/12/23 08:08:35;;;;;;;609.40;126.13;;;9.00;99.90;;;;;;5036763;28;20277;-53
2022/12/23 08:11:05;;;;;;;201.27;48.33;;;9.00;99.90;;;;;;5037276;28;20251;-51
2022/12/23 08:13:35;;;;;;;369.57;71.03;;;9.00;99.90;;;;;;5041294;28;20257;-52
2022/12/23 08:16:05;;;;;;;673.10;163.50;;;9.00;99.90;;;;;;5049471;28;20256;-52
2022/12/23 08:18:35;;;;;;;555.90;109.40;;;9.10;99.90;;;;;;5041673;28;20206;-53
2022/12/23 08:21:06;;;;;;;304.90;57.40;;;9.10;99.90;;;;;;5049463;28;20206;-51
2022/12/23 08:23:35;;;;;;;320.83;88.60;;;9.10;99.90;;;;;;5040695;28;21072;-53
2022/12/23 08:26:06;;;;;;;52.80;26.03;;;9.10;99.90;;;;;;5049508;28;20276;-52
2022/12/23 08:28:34;;;;;;;300.47;85.53;;;9.10;99.90;;;;;;5039813;28;20238;-52
2022/12/23 08:31:05;;;;;;;194.63;52.40;;;9.10;99.90;;;;;;5048722;28;20215;-52
2022/12/23 08:33:35;;;;;;;1601.10;355.03;;;9.10;99.90;;;;;;5039288;28;20782;-53
2022/12/23 08:36:05;;;;;;;487.17;137.27;;;9.10;99.90;;;;;;5049387;28;20640;-53
2022/12/23 08:38:34;;;;;;;356.93;94.03;;;9.10;99.90;;;;;;5036378;28;20210;-52
2022/12/23 08:41:02;;;;;;;215.77;56.70;;;9.10;99.90;;;;;;5049483;28;20210;-52
2022/12/23 08:43:31;;;;;;;197.37;50.63;;;9.10;99.90;;;;;;5037013;28;20230;-52
2022/12/23 08:46:03;;;;;;;333.60;103.17;;;9.10;99.90;;;;;;5044899;28;20249;-52
2022/12/23 08:48:31;;;;;;;351.27;119.43;;;9.10;99.90;;;;;;5046203;28;20206;-52
2022/12/23 08:51:04;;;;;;;1033.03;216.47;;;9.10;99.90;;;;;;5043916;28;20250;-52
2022/12/23 08:53:34;;;;;;;320.20;78.27;;;9.10;99.90;;;;;;5046305;28;20259;-51
2022/12/23 08:56:04;;;;;;;869.63;228.27;;;9.10;99.90;;;;;;5041403;28;20213;-52
2022/12/23 08:58:35;;;;;;;1170.30;211.10;;;9.10;99.90;;;;;;5041714;28;20637;-52
2022/12/23 09:01:04;;;;;;;711.83;158.80;;;9.10;99.90;;;;;;5046906;28;20236;-52
2022/12/23 09:03:34;;;;;;;1211.37;286.37;;;9.10;99.90;;;;;;5037449;28;20807;-52
2022/12/23 09:06:04;;;;;;;490.97;125.47;;;9.10;99.90;;;;;;5046282;28;20312;-53
2022/12/23 09:08:34;;;;;;;567.10;117.90;;;9.10;99.90;;;;;;5044128;28;20225;-52
2022/12/23 09:11:03;;;;;;;525.30;187.30;;;9.20;99.90;;;;;;5047482;28;20256;-52
2022/12/23 09:13:31;;;;;;;757.63;155.13;;;9.20;99.90;;;;;;5043291;28;20252;-52
2022/12/23 09:16:02;;;;;;;382.93;89.03;;;9.20;99.90;;;;;;5048813;28;20198;-52
2022/12/23 09:18:32;;;;;;;965.90;199.97;;;9.20;99.90;;;;;;5048132;28;20678;-52
2022/12/23 09:21:01;;;;;;;781.80;249.50;;;9.10;99.90;;;;;;5048652;28;20742;-52
2022/12/23 09:23:29;;;;;;;1063.20;238.73;;;9.10;99.90;;;;;;5047356;28;20229;-52
2022/12/23 09:25:59;;;;;;;486.43;101.93;;;9.10;99.90;;;;;;5047379;28;20324;-52
2022/12/23 09:28:27;;;;;;;846.93;155.83;;;9.10;99.90;;;;;;5047815;28;20242;-52
2022/12/23 09:30:55;;;;;;;212.00;59.83;;;9.10;99.90;;;;;;5047756;28;20295;-52
2022/12/23 09:33:23;;;;;;;874.17;187.53;;;9.20;99.90;;;;;;5044298;28;20232;-52
2022/12/23 09:35:52;;;;;;;526.60;122.70;;;9.20;99.90;;;;;;5048608;28;20296;-52
2022/12/23 09:38:20;;;;;;;1407.70;399.17;;;9.20;99.90;;;;;;5038837;28;20288;-52
2022/12/23 09:40:48;;;;;;;731.10;116.13;;;9.30;99.90;;;;;;5048702;28;20205;-51
2022/12/23 09:43:29;;;;;;;544.33;162.77;;;9.30;99.90;;;;;;5047716;28;20239;-52
2022/12/23 09:46:07;;;;;;;153.47;48.73;;;9.30;99.90;;;;;;5048193;28;20272;-52
2022/12/23 09:48:41;;;;;;;447.10;112.97;;;9.30;99.90;;;;;;5041168;28;20219;-52
2022/12/23 09:51:11;;;;;;;352.23;82.27;;;9.30;99.90;;;;;;5046088;28;20204;-52
2022/12/23 09:53:49;;;;;;;172.80;39.63;;;9.30;99.90;;;;;;5034957;28;20285;-52
2022/12/23 09:56:24;;;;;;;353.47;84.77;;;9.40;99.90;;;;;;5048397;28;20244;-52
2022/12/23 09:59:02;;;;;;;479.00;113.57;;;9.40;99.90;;;;;;5045625;28;20292;-52
2022/12/23 10:01:35;;;;;;;237.03;54.13;;;9.40;99.90;;;;;;5048449;28;20224;-53
2022/12/23 10:04:45;;;;;;;172.40;55.23;;;9.40;99.90;;;;;;5045097;28;20225;-52
2022/12/23 10:07:26;;;;;;;547.80;118.70;;;9.40;99.90;;;;;;5047997;28;20201;-52
2022/12/23 10:09:56;;;;;;;423.53;95.50;;;9.50;99.90;;;;;;5047839;28;20253;-52
2022/12/23 10:12:35;;;;;;;426.07;98.10;;;9.50;99.90;;;;;;5047336;28;20229;-52
2022/12/23 10:15:21;;;;;;;544.30;102.50;;;9.50;99.90;;;;;;5042574;28;20267;-52
2022/12/23 10:17:54;;;;;;;316.57;89.43;;;9.50;99.90;;;;;;5048870;28;20256;-52
2022/12/23 10:20:32;;;;;;;445.60;111.23;;;9.50;99.90;;;;;;5051160;28;20209;-52
2022/12/23 10:23:00;;;;;;;372.93;104.50;;;9.50;99.90;;;;;;5049363;28;20255;-52
2022/12/23 10:25:33;;;;;;;404.47;113.87;;;9.50;99.90;;;;;;5049902;28;20284;-52
2022/12/23 10:28:01;;;;;;;1388.20;440.40;;;9.50;99.90;;;;;;5050279;28;20194;-52
2022/12/23 10:30:36;;;;;;;755.60;152.97;;;9.50;99.90;;;;;;5049611;28;20206;-51
2022/12/23 10:33:35;;;;;;;860.30;155.07;;;9.50;99.90;;;;;;5049725;28;20229;-52
2022/12/23 10:36:12;;;;;;;286.17;68.53;;;9.40;99.90;;;;;;5042645;28;20209;-51
2022/12/23 10:38:49;;;;;;;934.63;175.37;;;9.40;99.90;;;;;;5050525;28;20209;-53
2022/12/23 10:41:31;;;;;;;1949.77;323.37;;;9.40;99.90;;;;;;5046186;28;20237;-52
2022/12/23 10:44:14;;;;;;;971.83;126.40;;;9.30;99.90;;;;;;5037872;28;20793;-52
2022/12/23 10:46:52;;;;;;;513.50;108.33;;;9.30;99.90;;;;;;5049549;28;20620;-52
2022/12/23 10:49:33;;;;;;;278.73;77.50;;;9.30;99.90;;;;;;5041198;28;20226;-52
2022/12/23 10:52:06;;;;;;;150.67;39.83;;;9.30;99.90;;;;;;5042563;28;20300;-52
2022/12/23 10:54:36;;;;;;;944.33;166.93;;;9.30;99.90;;;;;;5043480;28;20218;-52
2022/12/23 10:57:05;;;;;;;626.93;183.10;;;9.30;99.90;;;;;;5037789;28;20203;-52
2022/12/23 10:59:35;;;;;;;1999.90;436.77;;;9.30;99.90;;;;;;5050834;28;20209;-53
2022/12/23 11:02:17;;;;;;;324.17;69.43;;;9.30;99.90;;;;;;5041612;28;20703;-52
2022/12/23 11:04:48;;;;;;;872.37;173.23;;;9.30;99.90;;;;;;5037426;28;20215;-52
2022/12/23 11:07:20;;;;;;;903.03;143.93;;;9.30;99.90;;;;;;5039122;28;20649;-52
2022/12/23 11:10:16;;;;;;;544.57;109.60;;;9.30;99.90;;;;;;5048885;28;20205;-52
2022/12/23 11:12:47;;;;;;;183.13;44.83;;;9.30;99.90;;;;;;5039389;28;20221;-51
2022/12/23 11:15:27;;;;;;;894.47;208.47;;;9.30;99.90;;;;;;5049084;28;20685;-52
2022/12/23 11:18:05;;;;;;;609.27;115.03;;;9.40;99.90;;;;;;5046286;28;20670;-52
2022/12/23 11:20:35;;;;;;;579.80;235.70;;;9.40;99.90;;;;;;5050235;28;20208;-53
2022/12/23 11:23:05;;;;;;;270.20;65.13;;;9.40;99.90;;;;;;5037397;28;20283;-51
2022/12/23 11:25:36;;;;;;;1094.47;207.20;;;9.40;99.90;;;;;;5039435;28;20252;-53
2022/12/23 11:28:11;;;;;;;731.93;194.83;;;9.40;99.90;;;;;;5046834;28;20249;-52
2022/12/23 11:30:52;;;;;;;513.33;117.43;;;9.50;99.90;;;;;;5043765;28;20266;-53
2022/12/23 11:33:27;;;;;;;255.87;67.93;;;9.60;99.90;;;;;;5048467;28;20255;-52
2022/12/23 11:36:06;;;;;;;506.83;128.70;;;9.50;99.90;;;;;;5046675;28;20210;-52
2022/12/23 11:38:36;;;;;;;381.43;87.30;;;9.60;99.90;;;;;;5048498;28;20198;-51
2022/12/23 11:41:05;;;;;;;185.97;74.00;;;9.50;99.90;;;;;;5048983;28;20205;-52
2022/12/23 11:43:34;;;;;;;522.10;142.73;;;9.50;99.90;;;;;;5049703;28;20225;-52
2022/12/23 11:46:18;;;;;;;950.27;229.23;;;9.50;99.90;;;;;;5038035;28;20225;-52
2022/12/23 11:48:47;;;;;;;567.20;152.10;;;9.60;99.90;;;;;;5050177;28;20205;-51
2022/12/23 11:51:26;;;;;;;778.47;174.53;;;9.60;99.90;;;;;;5044451;28;20698;-52
2022/12/23 11:54:00;;;;;;;97.87;31.17;;;9.70;99.90;;;;;;5047279;28;20280;-53
2022/12/23 11:56:35;;;;;;;1368.97;306.70;;;9.70;99.90;;;;;;5048907;28;20700;-52
2022/12/23 11:59:07;;;;;;;698.60;130.00;;;9.60;99.90;;;;;;5050744;28;20266;-53
2022/12/23 12:01:38;;;;;;;1011.07;326.07;;;9.60;99.90;;;;;;5048840;28;20210;-52
2022/12/23 12:04:14;;;;;;;530.07;152.87;;;9.60;99.90;;;;;;5048986;28;20316;-52
2022/12/23 12:06:44;;;;;;;80.03;26.73;;;9.60;99.90;;;;;;5049175;28;20351;-53
2022/12/23 12:09:20;;;;;;;486.33;172.77;;;9.70;99.90;;;;;;5047423;28;20296;-52
2022/12/23 12:11:51;;;;;;;993.60;254.73;;;9.60;99.90;;;;;;5046231;28;20259;-53
2022/12/23 12:14:27;;;;;;;453.87;94.77;;;9.60;99.90;;;;;;5048727;28;20252;-52
2022/12/23 12:17:00;;;;;;;424.30;115.67;;;9.60;99.90;;;;;;5046558;28;20201;-52
2022/12/23 12:19:33;;;;;;;479.67;71.67;;;9.70;99.90;;;;;;5049703;28;20205;-52
2022/12/23 12:22:05;;;;;;;739.13;164.60;;;9.60;99.90;;;;;;5044923;28;20263;-52
2022/12/23 12:24:38;;;;;;;323.87;68.83;;;9.60;99.90;;;;;;5039205;28;21871;-52
2022/12/23 12:27:08;;;;;;;526.97;102.63;;;9.60;99.90;;;;;;5049103;28;20267;-52
2022/12/23 12:29:41;;;;;;;299.40;77.40;;;9.60;99.90;;;;;;5049440;28;20291;-51
2022/12/23 12:32:16;;;;;;;831.73;195.37;;;9.50;99.90;;;;;;5043591;28;20630;-52
2022/12/23 12:34:52;;;;;;;731.10;169.37;;;9.50;99.90;;;;;;5048596;28;20236;-52
2022/12/23 12:37:30;;;;;;;755.97;144.57;;;9.50;99.90;;;;;;5047606;28;20640;-52
2022/12/23 12:40:02;;;;;;;363.47;97.80;;;9.50;99.90;;;;;;5047255;28;20276;-51
2022/12/23 12:42:37;;;;;;;539.67;115.60;;;9.40;99.90;;;;;;5048576;28;20777;-52
2022/12/23 12:45:16;;;;;;;1999.90;430.60;;;9.40;99.90;;;;;;5045048;28;20437;-52
2022/12/23 12:47:52;;;;;;;122.53;43.73;;;9.40;99.90;;;;;;5048553;28;20257;-51
2022/12/23 12:50:30;;;;;;;340.73;100.50;;;9.50;99.90;;;;;;5047885;28;20733;-51
2022/12/23 12:53:03;;;;;;;218.57;73.47;;;9.50;99.90;;;;;;5046008;28;20225;-51
2022/12/23 12:55:37;;;;;;;902.33;286.57;;;9.50;99.90;;;;;;5049650;28;20211;-52
2022/12/23 12:58:15;;;;;;;453.00;116.17;;;9.50;99.90;;;;;;5048304;28;20239;-52
2022/12/23 13:00:54;;;;;;;1284.00;392.87;;;9.50;99.90;;;;;;5049027;28;20843;-51
2022/12/23 13:03:34;;;;;;;1700.77;380.13;;;9.50;99.90;;;;;;5048873;28;20229;-51
2022/12/23 13:06:18;;;;;;;585.67;148.30;;;9.40;99.90;;;;;;5048344;28;20229;-51
2022/12/23 13:09:01;;;;;;;774.97;228.90;;;9.40;99.90;;;;;;5045911;28;20280;-50
2022/12/23 13:11:42;;;;;;;308.90;76.80;;;9.40;99.90;;;;;;5036164;28;20283;-52
2022/12/23 13:14:22;;;;;;;609.10;155.50;;;9.40;99.90;;;;;;5041739;28;20226;-52